Time;durP1;ratioP1;P1;durP2;ratioP2;P2;SDS_P1;SDS_P2;PMS_P1;PMS_P2;Temp;Humidity;BMP_temperature;BMP_pressure;BME280_temperature;BME280_humidity;BME280_pressure;Samples;Min_cycle;Max_cycle;Signal;HPM_P1;HPM_P2
2021/07/01 00:00:12;;;;;;;2.47;1.08;;;;;;;19.18;67.03;99571.94;5095243;28;20071;-69
2021/07/01 00:02:41;;;;;;;2.72;1.30;;;;;;;19.21;67.15;99566.22;5095417;28;20040;-69
2021/07/01 00:05:13;;;;;;;1.20;0.88;;;;;;;19.12;67.42;99556.38;5095259;28;20145;-69
2021/07/01 00:07:45;;;;;;;4.43;1.30;;;;;;;19.15;67.33;99565.00;5095219;28;20036;-69
2021/07/01 00:10:18;;;;;;;2.38;1.00;;;;;;;19.13;67.26;99555.38;5094857;28;20048;-68
2021/07/01 00:12:47;;;;;;;3.22;1.10;;;;;;;19.16;67.02;99563.16;5095168;28;20109;-68
2021/07/01 00:15:20;;;;;;;2.00;1.00;;;;;;;19.10;67.43;99552.97;5094965;28;20418;-69
2021/07/01 00:17:48;;;;;;;1.80;1.05;;;;;;;19.00;67.67;99554.97;5077401;28;20040;-69
2021/07/01 00:20:18;;;;;;;1.45;1.00;;;;;;;18.96;67.86;99551.75;5094565;28;20079;-69
2021/07/01 00:22:46;;;;;;;2.03;1.00;;;;;;;18.87;68.13;99550.88;5095128;28;20457;-69
2021/07/01 00:25:16;;;;;;;3.47;1.58;;;;;;;18.97;67.76;99553.44;5076535;28;20063;-69
2021/07/01 00:27:45;;;;;;;2.50;1.13;;;;;;;18.85;68.61;99555.59;5094915;28;20097;-70
2021/07/01 00:30:16;;;;;;;2.55;1.20;;;;;;;18.74;68.87;99547.78;5094728;28;20403;-69
2021/07/01 00:32:47;;;;;;;2.83;1.02;;;;;;;18.79;68.69;99552.69;5094757;28;20040;-69
2021/07/01 00:35:15;;;;;;;3.33;0.90;;;;;;;18.70;68.88;99554.50;5094177;28;20449;-69
2021/07/01 00:37:46;;;;;;;3.28;1.25;;;;;;;18.68;69.16;99556.53;5094812;28;20040;-70
2021/07/01 00:40:16;;;;;;;3.95;1.20;;;;;;;18.64;69.49;99552.44;5076135;28;20098;-70
2021/07/01 00:42:45;;;;;;;4.70;1.20;;;;;;;18.56;69.77;99565.88;5076695;28;20040;-68
2021/07/01 00:45:15;;;;;;;2.47;1.05;;;;;;;18.41;70.36;99578.25;5094439;28;20117;-70
2021/07/01 00:47:44;;;;;;;2.17;0.90;;;;;;;18.36;70.73;99577.91;5094506;28;20052;-71
2021/07/01 00:50:14;;;;;;;2.13;1.27;;;;;;;18.33;70.68;99572.81;5094125;28;20044;-72
2021/07/01 00:52:43;;;;;;;1.40;0.93;;;;;;;18.25;70.90;99558.28;5076344;28;20060;-71
2021/07/01 00:55:13;;;;;;;3.38;1.08;;;;;;;18.19;71.38;99563.44;5094166;28;20078;-72
2021/07/01 00:57:45;;;;;;;1.08;0.88;;;;;;;18.08;71.61;99567.25;5094561;28;20445;-74
2021/07/01 01:02:59;;;;;;;2.47;1.08;;;;;;;18.14;71.14;99565.75;5094042;28;20101;-68
2021/07/01 01:05:28;;;;;;;1.20;0.85;;;;;;;18.09;71.32;99574.34;5075848;28;20047;-68
2021/07/01 01:07:56;;;;;;;3.50;1.05;;;;;;;18.08;71.21;99583.44;5094153;28;20490;-67
2021/07/01 01:10:24;;;;;;;2.25;1.05;;;;;;;18.14;71.00;99598.97;5093641;28;20094;-68
2021/07/01 01:12:54;;;;;;;5.28;1.23;;;;;;;18.19;70.87;99595.84;5093667;28;20052;-68
2021/07/01 01:15:27;;;;;;;2.53;1.00;;;;;;;18.26;70.63;99603.16;5093755;28;20040;-68
2021/07/01 01:17:55;;;;;;;2.28;1.00;;;;;;;18.21;70.76;99607.31;5094059;28;20040;-67
2021/07/01 01:20:23;;;;;;;1.40;0.90;;;;;;;18.24;70.65;99624.06;5093546;28;20086;-68
2021/07/01 01:22:53;;;;;;;4.10;1.20;;;;;;;18.13;71.05;99634.22;5093584;28;20036;-69
2021/07/01 01:25:21;;;;;;;2.70;1.00;;;;;;;18.18;71.19;99630.06;5093304;28;20127;-69
2021/07/01 01:27:52;;;;;;;2.20;1.02;;;;;;;18.22;70.82;99620.66;5094000;28;20048;-68
2021/07/01 01:30:21;;;;;;;1.10;1.00;;;;;;;18.15;71.03;99633.09;5093635;28;20052;-69
2021/07/01 01:32:49;;;;;;;2.30;1.20;;;;;;;18.08;71.60;99625.78;5093584;28;20044;-69
2021/07/01 01:35:18;;;;;;;4.07;1.10;;;;;;;18.08;71.72;99634.72;5093581;28;20040;-69
2021/07/01 01:37:46;;;;;;;1.38;0.80;;;;;;;18.11;71.57;99637.09;5093506;28;20052;-69
2021/07/01 01:40:16;;;;;;;1.38;1.02;;;;;;;18.09;71.50;99644.50;5093426;28;20079;-69
2021/07/01 01:42:44;;;;;;;1.33;0.95;;;;;;;18.00;71.97;99646.28;5093411;28;20036;-69
2021/07/01 01:45:14;;;;;;;3.33;1.10;;;;;;;18.10;71.83;99639.94;5093226;28;20051;-69
2021/07/01 01:47:46;;;;;;;3.28;1.17;;;;;;;18.09;71.87;99649.91;5092486;28;20051;-69
2021/07/01 01:50:17;;;;;;;3.55;1.20;;;;;;;18.12;71.75;99651.44;5075085;28;20043;-69
2021/07/01 01:52:54;;;;;;;1.73;1.02;;;;;;;18.07;71.81;99651.06;5093587;28;20050;-69
2021/07/01 01:55:24;;;;;;;2.72;1.23;;;;;;;18.02;72.20;99644.25;5092840;28;20044;-69
2021/07/01 01:57:53;;;;;;;2.28;1.15;;;;;;;18.07;72.04;99641.13;5093432;28;20044;-68
2021/07/01 02:00:27;;;;;;;2.88;1.20;;;;;;;17.94;72.59;99635.25;5093276;28;20040;-70
2021/07/01 02:02:56;;;;;;;2.85;1.10;;;;;;;17.91;72.75;99647.19;5093295;28;20036;-69
2021/07/01 02:05:26;;;;;;;3.20;0.95;;;;;;;17.92;72.97;99638.09;5092925;28;20070;-70
2021/07/01 02:07:54;;;;;;;2.15;1.23;;;;;;;18.02;72.60;99622.66;5093193;28;20078;-70
2021/07/01 02:10:28;;;;;;;2.83;1.23;;;;;;;18.04;72.56;99633.31;5092676;28;20127;-71
2021/07/01 02:12:57;;;;;;;3.30;1.20;;;;;;;17.97;72.80;99634.94;5093120;28;20491;-70
2021/07/01 02:15:26;;;;;;;2.35;1.40;;;;;;;17.88;73.07;99646.66;5092892;28;20047;-70
2021/07/01 02:17:55;;;;;;;1.15;0.95;;;;;;;17.88;72.92;99646.66;5093259;28;20048;-70
2021/07/01 02:20:26;;;;;;;1.45;1.10;;;;;;;17.79;74.36;99661.06;5092481;28;20406;-69
2021/07/01 02:22:55;;;;;;;2.78;1.45;;;;;;;17.65;78.41;99657.00;5092889;28;20036;-69
2021/07/01 02:25:24;;;;;;;3.30;1.33;;;;;;;17.40;80.20;99639.72;5092586;28;20044;-70
2021/07/01 02:27:53;;;;;;;5.43;1.55;;;;;;;17.39;82.11;99620.00;5093055;28;20398;-70
2021/07/01 02:30:21;;;;;;;3.88;1.50;;;;;;;17.44;81.62;99584.47;5092483;28;20043;-71
2021/07/01 02:32:49;;;;;;;3.35;1.75;;;;;;;17.28;83.85;99595.09;5093012;28;20044;-70
2021/07/01 02:35:32;;;;;;;4.88;1.60;;;;;;;17.33;83.71;99598.19;5092332;28;20094;-70
2021/07/01 02:38:00;;;;;;;2.20;1.52;;;;;;;17.33;84.03;99614.34;5092730;28;20048;-70
2021/07/01 02:40:30;;;;;;;2.58;1.40;;;;;;;17.33;85.04;99635.91;5092576;28;20044;-70
2021/07/01 02:42:58;;;;;;;3.22;1.60;;;;;;;17.42;85.01;99635.00;5092691;28;20048;-69
2021/07/01 02:45:28;;;;;;;4.10;1.63;;;;;;;17.37;84.34;99648.06;5092479;28;20051;-69
2021/07/01 02:47:57;;;;;;;1.85;1.45;;;;;;;17.36;86.20;99641.00;5092675;28;20052;-70
2021/07/01 02:50:26;;;;;;;3.90;1.50;;;;;;;17.19;84.33;99634.56;5092376;28;20044;-70
2021/07/01 02:52:54;;;;;;;3.63;1.75;;;;;;;17.09;86.53;99639.16;5092703;28;20040;-70
2021/07/01 02:55:23;;;;;;;5.40;1.80;;;;;;;16.97;86.02;99637.63;5092370;28;20048;-70
2021/07/01 02:57:53;;;;;;;4.50;1.80;;;;;;;16.89;85.04;99619.53;5093276;28;20067;-69
2021/07/01 03:00:24;;;;;;;1.88;1.50;;;;;;;16.93;84.90;99623.63;5096372;28;20044;-70
2021/07/01 03:02:52;;;;;;;2.30;1.60;;;;;;;16.89;85.69;99619.53;5096391;28;20094;-70
2021/07/01 03:05:21;;;;;;;3.00;1.70;;;;;;;16.94;84.68;99619.94;5096333;28;20048;-69
2021/07/01 03:07:49;;;;;;;2.15;1.60;;;;;;;16.98;85.76;99621.31;5096565;28;20052;-70
2021/07/01 03:10:17;;;;;;;4.75;1.70;;;;;;;17.01;85.59;99631.81;5096113;28;20051;-72
2021/07/01 03:12:46;;;;;;;2.97;1.73;;;;;;;17.00;83.92;99635.50;5096250;28;20109;-71
2021/07/01 03:15:15;;;;;;;2.92;1.52;;;;;;;16.95;83.66;99636.94;5096198;28;20044;-71
2021/07/01 03:17:44;;;;;;;2.53;1.55;;;;;;;16.90;83.63;99639.25;5096205;28;20501;-70
2021/07/01 03:20:14;;;;;;;3.50;1.70;;;;;;;16.97;82.92;99643.03;5096392;28;20127;-70
2021/07/01 03:22:42;;;;;;;2.85;1.83;;;;;;;17.02;83.52;99646.13;5096160;28;20090;-70
2021/07/01 03:25:12;;;;;;;3.35;1.42;;;;;;;16.94;82.71;99646.88;5078458;28;20052;-70
2021/07/01 03:27:40;;;;;;;2.17;1.25;;;;;;;16.94;82.68;99641.47;5095732;28;20367;-70
2021/07/01 03:30:12;;;;;;;2.03;1.40;;;;;;;16.85;82.60;99648.59;5095892;28;20071;-69
2021/07/01 03:32:42;;;;;;;2.20;1.40;;;;;;;16.89;83.19;99641.09;5095874;28;20128;-69
2021/07/01 03:35:11;;;;;;;2.45;1.50;;;;;;;16.90;82.78;99650.88;5096103;28;20055;-69
2021/07/01 03:37:39;;;;;;;1.90;1.40;;;;;;;16.89;82.12;99646.47;5095554;28;20093;-70
2021/07/01 03:40:09;;;;;;;1.70;1.13;;;;;;;16.79;82.58;99664.47;5095751;28;20071;-70
2021/07/01 03:42:38;;;;;;;3.33;1.42;;;;;;;16.85;82.01;99666.59;5095314;28;20406;-71
2021/07/01 03:45:07;;;;;;;3.58;1.55;;;;;;;16.96;80.48;99661.03;5096059;28;20051;-72
2021/07/01 03:47:35;;;;;;;3.30;1.35;;;;;;;17.06;78.88;99664.53;5095545;28;20047;-72
2021/07/01 03:50:07;;;;;;;4.18;1.30;;;;;;;17.09;80.25;99664.25;5095655;28;20036;-72
2021/07/01 03:52:35;;;;;;;2.55;1.23;;;;;;;17.29;78.80;99661.47;5095540;28;20048;-71
2021/07/01 03:55:04;;;;;;;2.10;1.05;;;;;;;17.25;78.35;99660.91;5095764;28;20086;-72
2021/07/01 03:57:33;;;;;;;1.77;1.20;;;;;;;17.21;77.99;99658.69;5094944;28;20048;-72
2021/07/01 04:00:03;;;;;;;2.20;1.13;;;;;;;17.03;78.72;99658.59;5077383;28;20079;-71
2021/07/01 04:02:32;;;;;;;2.45;1.17;;;;;;;16.99;78.98;99649.97;5095037;28;20055;-71
2021/07/01 04:05:00;;;;;;;1.73;0.95;;;;;;;16.94;78.18;99644.19;5095238;28;20064;-70
2021/07/01 04:07:30;;;;;;;2.90;1.42;;;;;;;16.94;78.81;99656.78;5094929;28;20072;-69
2021/07/01 04:10:04;;;;;;;3.30;0.93;;;;;;;16.99;77.67;99655.38;5094793;28;20051;-69
2021/07/01 04:12:33;;;;;;;2.05;1.13;;;;;;;17.06;77.80;99663.69;5076798;28;20047;-70
2021/07/01 04:15:01;;;;;;;1.33;1.05;;;;;;;17.13;76.88;99659.41;5095287;28;20040;-69
2021/07/01 04:17:30;;;;;;;2.15;0.95;;;;;;;17.11;77.46;99653.31;5094741;28;20101;-70
2021/07/01 04:20:00;;;;;;;2.15;1.10;;;;;;;17.06;77.60;99656.44;5094802;28;20051;-70
2021/07/01 04:22:29;;;;;;;3.60;1.20;;;;;;;17.05;76.90;99654.75;5094599;28;20040;-70
2021/07/01 04:24:58;;;;;;;3.10;1.05;;;;;;;17.40;75.76;99655.88;5095232;28;20055;-70
2021/07/01 04:27:26;;;;;;;0.77;0.70;;;;;;;18.96;68.48;99640.09;5094898;28;20109;-69
2021/07/01 04:29:55;;;;;;;1.13;0.93;;;;;;;18.48;69.23;99644.13;5094523;28;20044;-71
2021/07/01 04:32:26;;;;;;;2.58;1.05;;;;;;;19.60;66.34;99647.66;5094612;28;20081;-72
2021/07/01 04:34:54;;;;;;;2.50;0.93;;;;;;;20.19;63.21;99643.03;5094897;28;20123;-69
2021/07/01 04:37:25;;;;;;;3.60;1.00;;;;;;;21.05;60.48;99639.72;5094308;28;20508;-73
2021/07/01 04:39:55;;;;;;;1.60;0.90;;;;;;;21.43;57.77;99642.66;5094639;28;20086;-69
2021/07/01 04:42:23;;;;;;;2.85;0.90;;;;;;;21.66;58.14;99648.97;5094198;28;20075;-73
2021/07/01 04:44:51;;;;;;;1.92;1.10;;;;;;;21.89;56.74;99650.88;5095716;28;20127;-72
2021/07/01 04:47:20;;;;;;;2.33;0.90;;;;;;;22.03;55.25;99650.13;5095774;28;20134;-73
2021/07/01 04:49:50;;;;;;;3.53;1.00;;;;;;;22.15;55.36;99654.13;5094370;28;20040;-71
2021/07/01 04:52:18;;;;;;;1.83;1.00;;;;;;;22.62;53.37;99653.06;5094334;28;20457;-71
2021/07/01 04:54:47;;;;;;;2.28;0.90;;;;;;;23.27;51.56;99659.72;5094437;28;20060;-75
2021/07/01 04:57:18;;;;;;;1.58;0.88;;;;;;;23.20;51.22;99654.16;5094195;28;20036;-74
2021/07/01 04:59:47;;;;;;;2.13;0.85;;;;;;;23.67;50.03;99655.66;5094473;28;20469;-75
2021/07/01 05:02:18;;;;;;;2.08;0.80;;;;;;;24.11;48.67;99650.03;5094068;28;20509;-71
2021/07/01 05:04:46;;;;;;;3.80;0.93;;;;;;;24.54;47.62;99659.09;5093748;28;20048;-70
2021/07/01 05:07:14;;;;;;;3.50;1.20;;;;;;;24.82;46.28;99669.19;5093864;28;20482;-70
2021/07/01 05:09:43;;;;;;;1.52;0.73;;;;;;;25.39;45.04;99663.50;5093420;28;20048;-72
2021/07/01 05:12:11;;;;;;;5.03;1.00;;;;;;;25.74;44.25;99665.34;5093921;28;20075;-70
2021/07/01 05:14:42;;;;;;;3.50;0.90;;;;;;;25.76;43.34;99668.69;5093917;28;20458;-76
2021/07/01 05:17:10;;;;;;;3.90;1.10;;;;;;;25.56;44.29;99672.16;5093125;28;20054;-75
2021/07/01 05:19:38;;;;;;;5.28;1.08;;;;;;;25.31;45.41;99682.75;5093440;28;20437;-74
2021/07/01 05:22:06;;;;;;;2.95;0.82;;;;;;;26.08;42.00;99676.16;5093868;28;20405;-76
2021/07/01 05:24:34;;;;;;;4.65;1.10;;;;;;;25.95;43.36;99685.16;5093343;28;20036;-76
2021/07/01 05:27:03;;;;;;;5.85;1.10;;;;;;;26.46;42.81;99681.09;5093645;28;20040;-75
2021/07/01 05:29:32;;;;;;;3.17;0.90;;;;;;;24.45;45.91;99687.53;5093469;28;20052;-75
2021/07/01 05:32:21;;;;;;;3.97;1.10;;;;;;;25.43;44.27;99691.22;5093662;28;20044;-76
2021/07/01 05:34:49;;;;;;;6.07;1.10;;;;;;;25.63;44.07;99703.06;5093141;28;20093;-75
2021/07/01 05:37:18;;;;;;;4.40;1.13;;;;;;;25.46;43.38;99704.44;5075071;28;20214;-74
2021/07/01 05:39:46;;;;;;;2.33;0.95;;;;;;;24.77;44.41;99712.56;5093319;28;20559;-74
2021/07/01 05:42:14;;;;;;;3.35;0.98;;;;;;;24.82;44.75;99704.63;5093435;28;20080;-72
2021/07/01 05:44:43;;;;;;;4.45;1.10;;;;;;;25.50;43.56;99691.25;5092951;28;20040;-72
2021/07/01 05:47:11;;;;;;;1.70;0.70;;;;;;;25.08;44.22;99704.84;5093197;28;20047;-76
2021/07/01 05:49:41;;;;;;;3.22;1.10;;;;;;;25.41;43.79;99709.69;5092810;28;20119;-76
2021/07/01 05:52:10;;;;;;;5.10;0.90;;;;;;;25.53;43.31;99699.88;5093145;28;20097;-76
2021/07/01 05:54:42;;;;;;;3.35;1.10;;;;;;;25.69;42.97;99713.19;5092813;28;20047;-75
2021/07/01 05:57:10;;;;;;;4.30;1.23;;;;;;;25.35;44.17;99705.03;5093383;28;20085;-74
2021/07/01 05:59:38;;;;;;;0.70;0.65;;;;;;;24.79;44.88;99705.84;5092937;28;20398;-74
2021/07/01 06:02:09;;;;;;;2.92;0.80;;;;;;;24.37;45.71;99692.25;5093201;28;20040;-73
2021/07/01 06:04:39;;;;;;;3.45;0.95;;;;;;;24.77;44.94;99710.66;5093052;28;20044;-74
2021/07/01 06:07:10;;;;;;;6.93;1.05;;;;;;;24.87;43.89;99707.59;5093326;28;20410;-74
2021/07/01 06:09:39;;;;;;;2.35;0.98;;;;;;;25.72;42.02;99705.66;5092683;28;20119;-74
2021/07/01 06:12:07;;;;;;;1.92;1.00;;;;;;;25.39;43.10;99709.91;5092983;28;20048;-74
2021/07/01 06:14:36;;;;;;;2.85;1.20;;;;;;;27.08;38.92;99697.09;5092585;28;20520;-75
2021/07/01 06:17:05;;;;;;;4.10;1.10;;;;;;;26.08;40.03;99717.16;5092691;28;20040;-72
2021/07/01 06:19:34;;;;;;;3.83;1.20;;;;;;;26.82;39.53;99703.41;5092637;28;20101;-71
2021/07/01 06:22:03;;;;;;;2.15;1.00;;;;;;;26.67;39.22;99726.56;5092992;28;20040;-69
2021/07/01 06:24:33;;;;;;;4.88;1.17;;;;;;;26.59;40.18;99705.72;5092781;28;20068;-70
2021/07/01 06:27:02;;;;;;;5.22;1.35;;;;;;;25.92;40.92;99718.34;5092734;28;20507;-69
2021/07/01 06:29:30;;;;;;;3.80;1.13;;;;;;;26.41;40.98;99716.41;5074630;28;20059;-69
2021/07/01 06:31:59;;;;;;;3.33;1.00;;;;;;;27.30;38.28;99714.13;5092915;28;20048;-70
2021/07/01 06:34:27;;;;;;;3.78;1.00;;;;;;;26.90;38.77;99715.19;5095918;28;20040;-71
2021/07/01 06:37:00;;;;;;;5.75;1.02;;;;;;;26.61;39.04;99722.75;5096979;28;20040;-69
2021/07/01 06:39:28;;;;;;;4.88;1.27;;;;;;;26.82;38.95;99733.50;5096783;28;20055;-72
2021/07/01 06:42:04;;;;;;;3.80;1.10;;;;;;;27.17;37.53;99725.09;5096884;28;20047;-68
2021/07/01 06:44:32;;;;;;;3.67;1.08;;;;;;;27.03;38.47;99737.97;5096667;28;20040;-67
2021/07/01 06:47:01;;;;;;;4.40;0.90;;;;;;;27.43;37.58;99734.34;5096623;28;20048;-71
2021/07/01 06:49:31;;;;;;;4.03;1.10;;;;;;;26.68;38.72;99742.75;5096448;28;20044;-72
2021/07/01 06:52:00;;;;;;;8.38;1.42;;;;;;;27.84;37.87;99729.38;5096540;28;20044;-70
2021/07/01 06:54:30;;;;;;;4.20;1.00;;;;;;;26.07;40.25;99741.97;5096497;28;20048;-72
2021/07/01 06:57:00;;;;;;;5.40;1.13;;;;;;;25.73;41.62;99745.59;5096642;28;20055;-71
2021/07/01 06:59:28;;;;;;;4.45;1.05;;;;;;;26.32;41.36;99744.97;5096429;28;20036;-80
2021/07/01 07:01:57;;;;;;;3.67;1.05;;;;;;;26.04;41.18;99731.44;5096347;28;20044;-71
2021/07/01 07:04:28;;;;;;;3.97;1.15;;;;;;;24.68;43.64;99743.72;5096227;28;20121;-72
2021/07/01 07:06:57;;;;;;;4.22;1.20;;;;;;;24.07;46.19;99737.81;5096662;28;20482;-71
2021/07/01 07:09:25;;;;;;;2.10;1.10;;;;;;;24.43;46.10;99741.41;5096686;28;20055;-72
2021/07/01 07:11:56;;;;;;;5.30;1.30;;;;;;;23.39;48.60;99740.69;5096652;28;20048;-71
2021/07/01 07:14:26;;;;;;;4.60;1.27;;;;;;;23.58;48.15;99744.72;5096244;28;20059;-71
2021/07/01 07:16:58;;;;;;;6.97;1.48;;;;;;;23.40;48.24;99736.91;5096217;28;20044;-71
2021/07/01 07:19:27;;;;;;;5.82;1.30;;;;;;;23.64;47.84;99740.41;5096583;28;20054;-71
2021/07/01 07:22:03;;;;;;;3.42;1.35;;;;;;;23.72;47.38;99734.88;5096263;28;20066;-71
2021/07/01 07:24:33;;;;;;;3.13;1.20;;;;;;;23.33;49.00;99741.41;5077983;28;20056;-71
2021/07/01 07:27:03;;;;;;;1.13;0.90;;;;;;;22.89;49.83;99737.81;5096270;28;20036;-71
2021/07/01 07:29:36;;;;;;;2.90;1.15;;;;;;;23.36;48.19;99749.22;5095845;28;20047;-71
2021/07/01 07:32:05;;;;;;;2.17;0.95;;;;;;;23.51;48.85;99748.38;5096485;28;20097;-71
2021/07/01 07:34:34;;;;;;;3.28;1.10;;;;;;;23.84;48.11;99748.88;5095926;28;20047;-71
2021/07/01 07:37:03;;;;;;;5.05;1.30;;;;;;;23.89;46.99;99758.13;5095810;28;20506;-71
2021/07/01 07:39:32;;;;;;;1.55;1.00;;;;;;;23.38;49.37;99760.75;5095526;28;20054;-72
2021/07/01 07:42:01;;;;;;;2.45;1.20;;;;;;;23.43;48.74;99758.31;5095692;28;20123;-71
2021/07/01 07:44:29;;;;;;;3.22;0.95;;;;;;;23.36;48.82;99754.66;5094149;28;20483;-71
2021/07/01 07:47:01;;;;;;;3.22;1.20;;;;;;;23.41;48.45;99752.22;5095825;28;20494;-71
2021/07/01 07:49:30;;;;;;;3.53;0.90;;;;;;;23.93;47.52;99743.13;5095614;28;20101;-71
2021/07/01 07:52:03;;;;;;;2.17;1.08;;;;;;;23.59;48.08;99761.94;5095716;28;20036;-71
2021/07/01 07:54:35;;;;;;;2.30;1.02;;;;;;;23.51;48.19;99751.09;5095593;28;20136;-78
2021/07/01 07:57:06;;;;;;;2.05;1.23;;;;;;;23.50;48.96;99746.69;5095788;28;20044;-71
2021/07/01 07:59:37;;;;;;;1.98;0.75;;;;;;;23.64;48.68;99757.63;5095595;28;20410;-71
2021/07/01 08:02:08;;;;;;;2.38;1.00;;;;;;;23.64;48.30;99757.63;5095643;28;20458;-71
2021/07/01 08:04:40;;;;;;;5.03;1.10;;;;;;;23.21;49.37;99769.28;5094997;28;20094;-71
2021/07/01 08:07:09;;;;;;;2.17;1.00;;;;;;;23.24;49.89;99758.84;5095211;28;20047;-71
2021/07/01 08:09:38;;;;;;;2.85;1.13;;;;;;;23.52;48.73;99766.38;5095181;28;20051;-71
2021/07/01 08:12:06;;;;;;;3.00;1.00;;;;;;;23.54;48.45;99764.31;5095151;28;20051;-71
2021/07/01 08:14:41;;;;;;;2.20;1.10;;;;;;;23.55;47.66;99763.31;5095021;28;20048;-71
2021/07/01 08:17:13;;;;;;;2.85;1.00;;;;;;;23.70;48.19;99756.00;5077214;28;20125;-71
2021/07/01 08:19:42;;;;;;;3.97;1.02;;;;;;;23.55;48.69;99766.03;5076968;28;20067;-70
2021/07/01 08:22:10;;;;;;;5.10;1.30;;;;;;;23.76;46.88;99774.31;5095111;28;20048;-70
2021/07/01 08:24:39;;;;;;;2.05;1.02;;;;;;;23.59;46.84;99773.66;5095063;28;20165;-71
2021/07/01 08:27:08;;;;;;;5.65;1.10;;;;;;;23.39;47.67;99773.34;5095066;28;20498;-70
2021/07/01 08:29:37;;;;;;;6.10;1.08;;;;;;;23.36;48.00;99771.00;5094771;28;20127;-71
2021/07/01 08:32:09;;;;;;;2.72;1.05;;;;;;;23.65;48.69;99763.91;5094891;28;20044;-70
2021/07/01 08:34:43;;;;;;;1.98;0.80;;;;;;;23.74;47.35;99743.72;5094601;28;20118;-70
2021/07/01 08:37:11;;;;;;;2.10;1.00;;;;;;;23.58;46.67;99771.94;5094803;28;20051;-70
2021/07/01 08:39:39;;;;;;;3.35;0.93;;;;;;;23.72;47.09;99758.53;5094489;28;20048;-71
2021/07/01 08:42:13;;;;;;;1.60;0.80;;;;;;;23.87;47.00;99743.88;5094658;28;20101;-70
2021/07/01 08:44:44;;;;;;;1.77;0.80;;;;;;;23.72;47.84;99762.09;5094230;28;20066;-70
2021/07/01 08:47:18;;;;;;;4.03;0.80;;;;;;;23.70;46.71;99767.72;5094550;28;20036;-70
2021/07/01 08:49:57;;;;;;;2.25;0.90;;;;;;;23.85;47.47;99766.88;5094305;28;20042;-70
2021/07/01 08:52:27;;;;;;;1.92;0.88;;;;;;;23.96;46.46;99759.06;5094732;28;20122;-69
2021/07/01 08:55:02;;;;;;;1.95;1.02;;;;;;;23.78;45.22;99768.69;5094394;28;20413;-70
2021/07/01 08:57:35;;;;;;;3.13;0.80;;;;;;;24.11;45.88;99761.75;5094330;28;20161;-69
2021/07/01 09:00:10;;;;;;;4.43;0.98;;;;;;;23.87;44.61;99759.38;5094662;28;20048;-71
2021/07/01 09:02:40;;;;;;;3.85;1.10;;;;;;;24.31;44.40;99767.47;5094112;28;20047;-72
2021/07/01 09:05:13;;;;;;;3.60;0.70;;;;;;;24.27;43.02;99771.59;5094099;28;20044;-70
2021/07/01 09:07:49;;;;;;;1.67;0.77;;;;;;;24.38;42.86;99756.63;5093878;28;20127;-70
2021/07/01 09:10:18;;;;;;;2.35;0.77;;;;;;;24.35;42.22;99767.94;5094006;28;20036;-70
2021/07/01 09:12:52;;;;;;;2.53;0.90;;;;;;;24.30;42.38;99770.34;5075569;28;20059;-70
2021/07/01 09:15:21;;;;;;;1.33;0.60;;;;;;;24.20;41.95;99784.28;5094094;28;20040;-70
2021/07/01 09:17:52;;;;;;;2.78;0.50;;;;;;;24.28;42.64;99770.53;5093988;28;20040;-71
2021/07/01 09:20:25;;;;;;;1.73;0.70;;;;;;;24.47;41.72;99767.22;5093972;28;20044;-70
2021/07/01 09:22:55;;;;;;;5.97;0.93;;;;;;;24.39;41.18;99770.06;5093700;28;20036;-70
2021/07/01 09:25:25;;;;;;;2.72;0.98;;;;;;;24.57;42.21;99758.72;5094068;28;20074;-70
2021/07/01 09:27:55;;;;;;;3.95;0.70;;;;;;;24.76;42.19;99759.97;5093639;28;20447;-70
2021/07/01 09:30:26;;;;;;;4.13;1.00;;;;;;;24.71;41.40;99757.00;5093748;28;20079;-70
2021/07/01 09:32:56;;;;;;;3.63;0.88;;;;;;;24.92;41.48;99747.94;5093368;28;20149;-70
2021/07/01 09:35:30;;;;;;;1.02;0.57;;;;;;;25.00;39.72;99761.44;5093985;28;20047;-70
2021/07/01 09:38:03;;;;;;;2.03;0.70;;;;;;;24.70;39.89;99763.47;5093425;28;20093;-70
2021/07/01 09:40:33;;;;;;;3.13;0.77;;;;;;;24.66;40.54;99759.44;5093773;28;20044;-70
2021/07/01 09:43:04;;;;;;;2.42;0.55;;;;;;;24.84;39.67;99759.81;5093251;28;20036;-70
2021/07/01 09:45:34;;;;;;;2.90;0.60;;;;;;;25.03;38.76;99755.63;5093595;28;20039;-70
2021/07/01 09:48:06;;;;;;;2.40;0.80;;;;;;;25.03;38.04;99753.72;5074967;28;20047;-70
2021/07/01 09:50:38;;;;;;;2.78;0.70;;;;;;;24.94;37.61;99751.31;5093628;28;20067;-71
2021/07/01 09:53:09;;;;;;;0.98;0.70;;;;;;;24.92;38.80;99747.94;5093551;28;20074;-70
2021/07/01 09:55:39;;;;;;;2.95;0.60;;;;;;;25.22;38.87;99749.47;5093581;28;20040;-70
2021/07/01 09:58:10;;;;;;;1.75;0.60;;;;;;;25.08;38.22;99740.31;5093596;28;20047;-71
2021/07/01 10:00:39;;;;;;;3.70;0.77;;;;;;;25.21;37.77;99757.84;5093384;28;20044;-78
2021/07/01 10:03:08;;;;;;;1.75;0.57;;;;;;;24.75;37.82;99761.00;5093165;28;20044;-71
2021/07/01 10:05:39;;;;;;;2.67;0.70;;;;;;;24.48;37.78;99752.56;5093130;28;20048;-71
2021/07/01 10:08:07;;;;;;;1.33;0.50;;;;;;;24.76;37.82;99743.59;5092471;28;20414;-71
2021/07/01 10:10:46;;;;;;;0.82;0.60;;;;;;;24.89;36.76;99743.69;5075373;28;20050;-70
2021/07/01 10:13:18;;;;;;;1.73;0.75;;;;;;;25.09;37.68;99744.75;5093386;28;20063;-70
2021/07/01 10:15:49;;;;;;;0.30;0.30;;;;;;;25.24;35.78;99739.19;5092736;28;20429;-70
2021/07/01 10:18:21;;;;;;;2.17;0.38;;;;;;;25.26;36.59;99733.53;5093008;28;20524;-70
2021/07/01 10:20:57;;;;;;;2.13;0.55;;;;;;;25.20;36.01;99751.56;5092702;28;20036;-71
2021/07/01 10:23:27;;;;;;;1.13;0.50;;;;;;;25.20;36.53;99746.09;5075146;28;20052;-71
2021/07/01 10:25:57;;;;;;;1.45;0.57;;;;;;;25.44;36.43;99747.50;5092644;28;20051;-70
2021/07/01 10:28:30;;;;;;;1.73;0.55;;;;;;;25.56;35.79;99740.41;5092956;28;20041;-71
2021/07/01 10:31:00;;;;;;;1.05;0.50;;;;;;;25.48;36.95;99737.00;5092625;28;20064;-71
2021/07/01 10:33:31;;;;;;;4.97;0.70;;;;;;;25.51;36.06;99742.09;5093163;28;20052;-70
2021/07/01 10:36:02;;;;;;;1.10;0.50;;;;;;;25.59;35.86;99745.50;5092545;28;20402;-71
2021/07/01 10:38:42;;;;;;;2.97;0.70;;;;;;;25.61;34.97;99753.50;5092787;28;20075;-71
2021/07/01 10:41:12;;;;;;;2.28;0.47;;;;;;;25.44;35.20;99755.69;5092884;28;20043;-70
2021/07/01 10:43:42;;;;;;;1.08;0.50;;;;;;;25.74;35.39;99753.56;5092629;28;20051;-70
2021/07/01 10:46:11;;;;;;;1.90;0.50;;;;;;;25.73;35.12;99757.34;5092691;28;20068;-72
2021/07/01 10:48:40;;;;;;;0.82;0.50;;;;;;;25.54;34.61;99753.44;5092770;28;20048;-70
2021/07/01 10:51:12;;;;;;;1.38;0.80;;;;;;;25.42;34.72;99751.47;5092716;28;20491;-71
2021/07/01 10:53:41;;;;;;;3.47;0.60;;;;;;;25.63;34.86;99741.31;5092605;28;20101;-72
2021/07/01 10:56:25;;;;;;;1.88;1.00;;;;;;;25.84;34.95;99739.53;5092612;28;20086;-71
2021/07/01 10:58:56;;;;;;;4.93;0.47;;;;;;;25.82;34.85;99738.91;5092740;28;20093;-70
2021/07/01 11:01:25;;;;;;;4.03;0.73;;;;;;;25.77;35.68;99736.81;5092736;28;20044;-72
2021/07/01 11:04:08;;;;;;;3.08;0.75;;;;;;;25.49;35.85;99734.09;5092302;28;20127;-71
2021/07/01 11:06:39;;;;;;;2.20;0.70;;;;;;;25.72;35.94;99727.53;5092254;28;20052;-71
2021/07/01 11:09:09;;;;;;;4.65;0.77;;;;;;;25.79;36.43;99720.22;5093050;28;20044;-72
2021/07/01 11:11:39;;;;;;;0.90;0.55;;;;;;;25.89;35.61;99737.06;5092577;28;20052;-72
2021/07/01 11:14:09;;;;;;;1.48;0.40;;;;;;;25.69;34.82;99724.13;5092152;28;20056;-71
2021/07/01 11:16:39;;;;;;;2.38;0.68;;;;;;;25.87;35.14;99736.44;5092381;28;20098;-72
2021/07/01 11:19:09;;;;;;;8.70;0.70;;;;;;;25.56;35.54;99725.94;5093248;28;20130;-71
2021/07/01 11:21:45;;;;;;;1.02;0.47;;;;;;;25.40;34.79;99749.78;5095951;28;20461;-72
2021/07/01 11:24:20;;;;;;;1.40;0.45;;;;;;;25.51;34.62;99736.63;5096206;28;20048;-71
2021/07/01 11:26:50;;;;;;;1.83;0.40;;;;;;;25.65;33.75;99744.66;5095747;28;20479;-70
2021/07/01 11:29:34;;;;;;;2.58;0.68;;;;;;;25.35;34.55;99738.63;5095858;28;20066;-72
2021/07/01 11:32:18;;;;;;;4.63;0.60;;;;;;;25.42;35.25;99732.38;5095972;28;20119;-71
2021/07/01 11:34:47;;;;;;;2.97;0.88;;;;;;;25.43;35.46;99748.53;5096009;28;20157;-70
2021/07/01 11:37:32;;;;;;;2.38;0.60;;;;;;;25.35;35.56;99738.63;5095922;28;20040;-70
2021/07/01 11:40:12;;;;;;;3.63;0.77;;;;;;;25.62;36.02;99739.63;5095798;28;20044;-72
2021/07/01 11:42:41;;;;;;;3.15;0.70;;;;;;;26.02;35.55;99730.78;5095804;28;20040;-71
2021/07/01 11:45:10;;;;;;;2.58;0.50;;;;;;;25.99;35.45;99734.78;5095722;28;20051;-72
2021/07/01 11:47:42;;;;;;;1.85;0.40;;;;;;;25.95;35.23;99733.50;5095800;28;20437;-72
2021/07/01 11:50:12;;;;;;;1.30;0.70;;;;;;;25.94;34.93;99742.75;5095781;28;20044;-71